createdAt,value
2018-06-02T00:01:59.103Z,8.11
2018-06-02T00:07:54.105Z,7.91
2018-06-02T00:13:49.124Z,9.17
2018-06-02T00:19:44.118Z,13.67
2018-06-02T00:25:39.123Z,12.4
2018-06-02T00:31:34.109Z,10
2018-06-02T00:37:29.146Z,11.8
2018-06-02T00:43:24.135Z,9.33
2018-06-02T00:49:19.141Z,9.11
2018-06-02T00:55:14.152Z,8.6
2018-06-02T01:01:09.115Z,10.32
2018-06-02T01:07:04.098Z,10.38
2018-06-02T01:12:59.127Z,11.53
2018-06-02T01:18:54.194Z,6.03
2018-06-02T01:24:49.130Z,8.25
2018-06-02T01:30:44.146Z,11.33
2018-06-02T01:36:39.138Z,14.79
2018-06-02T01:42:34.119Z,11.88
2018-06-02T01:48:29.150Z,12.4
2018-06-02T01:54:24.141Z,8.57
2018-06-02T02:00:19.137Z,8.26
2018-06-02T02:06:14.143Z,9.2
2018-06-02T02:12:09.149Z,7.95
2018-06-02T02:18:04.171Z,10.72
2018-06-02T02:23:59.147Z,12.42
2018-06-02T02:29:54.175Z,16.97
2018-06-02T02:35:49.221Z,13.07
2018-06-02T02:41:44.208Z,14.75
2018-06-02T02:47:39.130Z,10.64
2018-06-02T02:53:34.198Z,11.76
2018-06-02T02:59:29.161Z,13.87
2018-06-02T03:05:24.172Z,18.17
2018-06-02T03:11:19.160Z,11.51
2018-06-02T03:17:14.167Z,9.88
2018-06-02T03:23:09.172Z,10.1
2018-06-02T03:29:04.153Z,8.43
2018-06-02T03:34:59.163Z,10.1
2018-06-02T03:40:54.194Z,11.8
2018-06-02T03:46:49.164Z,7.33
2018-06-02T03:52:44.186Z,15.66
2018-06-02T03:58:39.179Z,10.75
2018-06-02T04:04:34.236Z,13.77
2018-06-02T04:10:29.182Z,10.49
2018-06-02T04:16:24.164Z,9.87
2018-06-02T04:22:19.168Z,13.03
2018-06-02T04:28:14.224Z,12.87
2018-06-02T04:34:09.188Z,16.49
2018-06-02T04:40:04.218Z,16.31
2018-06-02T04:45:59.193Z,13.94
2018-06-02T04:51:54.200Z,16.1
2018-06-02T04:57:49.196Z,10.77
2018-06-02T05:03:44.168Z,13.05
2018-06-02T05:09:39.199Z,14.53
2018-06-02T05:15:34.262Z,10.73
2018-06-02T05:21:29.254Z,13.52
2018-06-02T05:27:24.181Z,14.24
2018-06-02T05:33:19.243Z,10.61
2018-06-02T05:39:14.246Z,12.27
2018-06-02T05:45:09.227Z,11.83
2018-06-02T05:51:04.216Z,19.02
2018-06-02T05:56:59.250Z,17.4
2018-06-02T06:02:54.191Z,13.68
2018-06-02T06:08:49.235Z,13.58
2018-06-02T06:14:44.236Z,12.43
2018-06-02T06:20:39.218Z,19.09
2018-06-02T06:26:34.266Z,21.76
2018-06-02T06:32:29.310Z,32.28
2018-06-02T06:38:24.214Z,28.81
2018-06-02T06:44:19.223Z,23.86
2018-06-02T06:50:14.227Z,18.73
2018-06-02T06:56:09.254Z,16.23
2018-06-02T07:02:04.274Z,15.75
2018-06-02T07:07:59.274Z,12.04
2018-06-02T07:13:54.231Z,12.17
2018-06-02T07:19:49.325Z,21.48
2018-06-02T07:25:44.257Z,18.44
2018-06-02T07:31:39.263Z,12.9
2018-06-02T07:37:34.301Z,14.85
2018-06-02T07:43:29.260Z,16.55
2018-06-02T07:49:24.275Z,23.44
2018-06-02T07:55:19.316Z,21.79
2018-06-02T08:01:14.258Z,15.5
2018-06-02T08:07:09.273Z,40.9
2018-06-02T08:13:04.257Z,41.75
2018-06-02T08:18:59.260Z,31.59
2018-06-02T08:24:54.259Z,11.71
2018-06-02T08:30:49.254Z,10.5
2018-06-02T08:36:44.243Z,10.23
2018-06-02T08:42:39.281Z,11.91
2018-06-02T08:48:34.293Z,13.09
2018-06-02T08:54:29.407Z,15.27
2018-06-02T09:00:24.292Z,8.43
2018-06-02T09:06:19.297Z,10.66
2018-06-02T09:12:14.294Z,14.47
2018-06-02T09:18:09.275Z,9.83
2018-06-02T09:24:04.273Z,10.64
2018-06-02T09:29:59.286Z,10.05
2018-06-02T09:35:54.306Z,10.37
2018-06-02T09:41:49.342Z,11.78
2018-06-02T09:47:44.317Z,11.63
2018-06-02T09:53:39.264Z,10.48
2018-06-02T09:59:34.289Z,8.3
2018-06-02T10:05:29.284Z,12.55
2018-06-02T10:11:24.324Z,8.13
2018-06-02T10:17:19.345Z,9.57
2018-06-02T10:23:14.339Z,9.33
2018-06-02T10:29:09.291Z,7.98
2018-06-02T10:35:04.294Z,8.11
2018-06-02T10:40:59.310Z,9.51
2018-06-02T10:46:54.330Z,9
2018-06-02T10:52:49.312Z,8.94
2018-06-02T10:58:44.333Z,10.69
2018-06-02T11:04:39.311Z,8.11
2018-06-02T11:10:34.340Z,7.11
2018-06-02T11:16:29.347Z,8.51
2018-06-02T11:22:24.329Z,7.74
2018-06-02T11:28:19.381Z,5.91
2018-06-02T11:34:14.374Z,9.6
2018-06-02T11:40:09.346Z,5.28
2018-06-02T11:46:04.324Z,6.14
2018-06-02T11:51:59.332Z,4.78
2018-06-02T11:57:54.330Z,4.66
2018-06-02T12:03:49.353Z,4.78
2018-06-02T12:09:44.363Z,4.63
2018-06-02T12:15:39.322Z,6.79
2018-06-02T12:21:34.322Z,6.57
2018-06-02T12:27:29.321Z,8.76
2018-06-02T12:33:24.347Z,5.08
2018-06-02T12:39:19.341Z,3.55
2018-06-02T12:45:14.348Z,5.21
2018-06-02T12:51:09.361Z,3.68
2018-06-02T12:57:04.415Z,4.63
2018-06-02T13:02:59.343Z,3.52
2018-06-02T13:08:54.376Z,4.77
2018-06-02T13:14:49.409Z,4.28
2018-06-02T13:20:44.394Z,3.63
2018-06-02T13:26:39.368Z,5.03
2018-06-02T13:32:34.364Z,4.14
2018-06-02T13:38:29.386Z,5.29
2018-06-02T13:44:24.444Z,3.7
2018-06-02T13:50:19.424Z,3.4
2018-06-02T13:56:14.367Z,3
2018-06-02T14:02:09.371Z,5.17
2018-06-02T14:08:04.431Z,6.69
2018-06-02T14:13:59.385Z,5.48
2018-06-02T14:19:54.422Z,3.6
2018-06-02T14:25:49.413Z,3.7
2018-06-02T14:31:44.401Z,3.77
2018-06-02T14:37:39.467Z,6.14
2018-06-02T14:43:34.446Z,4.62
2018-06-02T14:49:29.465Z,3.37
2018-06-02T14:55:24.409Z,5.92
2018-06-02T15:01:19.423Z,7.96
2018-06-02T15:07:14.463Z,4.1
2018-06-02T15:13:09.457Z,3.75
2018-06-02T15:19:04.449Z,5.43
2018-06-02T15:24:59.443Z,3.82
2018-06-02T15:30:54.398Z,3.88
2018-06-02T15:36:49.438Z,3.64
2018-06-02T15:42:44.434Z,4.29
2018-06-02T15:48:39.456Z,4.89
2018-06-02T15:54:34.416Z,3.25
2018-06-02T16:00:29.410Z,3.78
2018-06-02T16:06:24.488Z,2.85
2018-06-02T16:12:19.451Z,4.9
2018-06-02T16:18:14.421Z,4.25
2018-06-02T16:24:09.438Z,2.17
2018-06-02T16:30:04.482Z,3.08
2018-06-02T16:35:59.426Z,4.73
2018-06-02T16:41:54.465Z,2.1
2018-06-02T16:47:49.451Z,2.64
2018-06-02T16:53:44.498Z,2.35
2018-06-02T16:59:39.524Z,1.98
2018-06-02T17:05:34.517Z,2.76
2018-06-02T17:11:29.490Z,2.67
2018-06-02T17:17:24.446Z,2.22
2018-06-02T17:23:19.443Z,3.03
2018-06-02T17:29:14.480Z,3.01
2018-06-02T17:35:09.475Z,3.69
2018-06-02T17:41:04.450Z,2.89
2018-06-02T17:46:59.548Z,5.74
2018-06-02T17:52:54.468Z,4.27
2018-06-02T17:58:49.456Z,5.08
2018-06-02T18:04:44.506Z,3.27
2018-06-02T18:10:39.490Z,3.72
2018-06-02T18:16:34.464Z,4.54
2018-06-02T18:22:29.520Z,6.95
2018-06-02T18:28:24.493Z,10.07
2018-06-02T18:34:19.476Z,6.7
2018-06-02T18:40:14.496Z,6.92
2018-06-02T18:46:09.493Z,7.52
2018-06-02T18:52:04.538Z,4.52
2018-06-02T18:57:59.508Z,4.78
2018-06-02T19:03:54.509Z,2.68
2018-06-02T19:09:49.528Z,3.03
2018-06-02T19:15:44.523Z,2.8
2018-06-02T19:21:39.515Z,5.23
2018-06-02T19:27:34.498Z,3.55
2018-06-02T19:33:29.560Z,3.16
2018-06-02T19:39:24.527Z,4.56
2018-06-02T19:45:19.508Z,3.98
2018-06-02T19:51:14.569Z,4.08
2018-06-02T19:57:09.529Z,6.09
2018-06-02T20:03:04.514Z,6.75
2018-06-02T20:08:59.568Z,9.46
2018-06-02T20:14:54.708Z,10.92
2018-06-02T20:20:49.544Z,6.65
2018-06-02T20:26:44.560Z,9.92
2018-06-02T20:32:39.537Z,7.33
2018-06-02T20:38:34.572Z,4.37
2018-06-02T20:44:29.519Z,5.56
2018-06-02T20:50:24.535Z,3.38
2018-06-02T20:56:19.577Z,4.76
2018-06-02T21:02:14.585Z,3.63
2018-06-02T21:08:09.582Z,6.67
2018-06-02T21:14:04.573Z,4.2
2018-06-02T21:19:59.575Z,5.16
2018-06-02T21:25:54.566Z,3.05
2018-06-02T21:31:49.539Z,4.6
2018-06-02T21:37:44.572Z,3.93
2018-06-02T21:43:39.586Z,3.18
2018-06-02T21:49:34.608Z,3.16
2018-06-02T21:55:29.559Z,4.1
2018-06-02T22:01:24.588Z,4.57
2018-06-02T22:07:19.608Z,3.16
2018-06-02T22:13:14.566Z,3.12
2018-06-02T22:19:09.572Z,8.85
2018-06-02T22:25:04.627Z,6.56
2018-06-02T22:30:59.618Z,2.83
2018-06-02T22:36:54.578Z,4.12
2018-06-02T22:42:49.629Z,4.89
2018-06-02T22:48:44.604Z,6.56
2018-06-02T22:54:39.624Z,3.65
2018-06-02T23:00:34.620Z,4.87
2018-06-02T23:06:29.633Z,2.77
2018-06-02T23:12:24.619Z,2.04
2018-06-02T23:18:19.725Z,5.02
2018-06-02T23:24:14.627Z,2.41
2018-06-02T23:30:09.570Z,2.41
2018-06-02T23:36:04.599Z,5.59
2018-06-02T23:41:59.599Z,7
2018-06-02T23:47:54.625Z,6.37
2018-06-02T23:53:49.643Z,3.79
